Time;durP1;ratioP1;P1;durP2;ratioP2;P2;SDS_P1;SDS_P2;PMS_P1;PMS_P2;Temp;Humidity;BMP_temperature;BMP_pressure;BME280_temperature;BME280_humidity;BME280_pressure;Samples;Min_cycle;Max_cycle;Signal;HPM_P1;HPM_P2
2022/08/06 00:02:14;;;;;;;;;;;22.60;57.80;;;;;;5104518;28;19903;-10
2022/08/06 00:04:40;;;;;;;;;;;22.60;58.00;;;;;;5103599;28;19915;-9
2022/08/06 00:07:05;;;;;;;;;;;22.50;58.00;;;;;;5121579;28;19904;-9
2022/08/06 00:09:32;;;;;;;;;;;22.50;58.40;;;;;;5121446;28;19911;-9
2022/08/06 00:11:59;;;;;;;;;;;22.40;58.30;;;;;;5103981;28;20052;-9
2022/08/06 00:14:25;;;;;;;;;;;22.40;58.60;;;;;;5121687;28;19980;-9
2022/08/06 00:16:51;;;;;;;;;;;22.40;59.00;;;;;;5119932;28;20257;-9
2022/08/06 00:19:17;;;;;;;;;;;22.30;58.70;;;;;;5103661;28;19904;-10
2022/08/06 00:21:48;;;;;;;;;;;22.30;59.00;;;;;;5121301;28;19935;-9
2022/08/06 00:24:13;;;;;;;;;;;22.30;58.80;;;;;;5103610;28;20217;-9
2022/08/06 00:26:39;;;;;;;;;;;22.30;58.80;;;;;;5121179;28;19943;-9
2022/08/06 00:29:05;;;;;;;;;;;22.20;59.00;;;;;;5104100;28;19908;-9
2022/08/06 00:31:31;;;;;;;;;;;22.20;59.40;;;;;;5121172;28;19910;-8
2022/08/06 00:33:57;;;;;;;;;;;22.20;59.10;;;;;;5103671;28;19904;-9
2022/08/06 00:36:23;;;;;;;;;;;22.20;59.20;;;;;;5103149;28;19903;-9
2022/08/06 00:38:49;;;;;;;;;;;22.10;59.50;;;;;;5103235;28;19914;-8
2022/08/06 00:41:15;;;;;;;;;;;22.10;59.40;;;;;;5120653;28;20217;-9
2022/08/06 00:43:42;;;;;;;;;;;22.10;59.60;;;;;;5121567;28;19904;-9
2022/08/06 00:46:07;;;;;;;;;;;22.10;60.00;;;;;;5121445;28;19903;-9
2022/08/06 00:48:37;;;;;;;;;;;22.20;59.80;;;;;;5103450;28;19914;-9
2022/08/06 00:51:02;;;;;;;;;;;22.20;59.90;;;;;;5120818;28;19903;-9
2022/08/06 00:53:28;;;;;;;;;;;22.30;59.90;;;;;;5102353;28;19908;-8
2022/08/06 00:55:54;;;;;;;;;;;22.40;59.50;;;;;;5102232;28;19970;-9
2022/08/06 00:58:20;;;;;;;;;;;22.40;59.60;;;;;;5103045;28;19941;-9
2022/08/06 01:00:46;;;;;;;;;;;22.40;59.50;;;;;;5102932;28;19968;-9
2022/08/06 01:03:11;;;;;;;;;;;22.50;59.20;;;;;;5102563;28;19950;-9
2022/08/06 01:05:37;;;;;;;;;;;22.50;59.30;;;;;;5119999;28;20002;-9
2022/08/06 01:08:03;;;;;;;;;;;22.60;59.00;;;;;;5102254;28;19912;-9
2022/08/06 01:10:29;;;;;;;;;;;22.60;58.70;;;;;;5119994;28;20023;-9
2022/08/06 01:12:55;;;;;;;;;;;22.50;58.70;;;;;;5119226;28;19964;-9
2022/08/06 01:15:20;;;;;;;;;;;22.30;58.90;;;;;;5102783;28;20206;-9
2022/08/06 01:17:55;;;;;;;;;;;22.30;60.10;;;;;;5120191;28;20438;-9
2022/08/06 01:20:27;;;;;;;;;;;22.10;60.00;;;;;;5101993;28;20294;-8
2022/08/06 01:23:02;;;;;;;;;;;22.10;59.90;;;;;;5120228;28;19915;-9
2022/08/06 01:25:47;;;;;;;;;;;22.10;60.10;;;;;;5102857;28;20161;-9
2022/08/06 01:28:24;;;;;;;;;;;22.10;60.60;;;;;;5102589;28;19911;-9
2022/08/06 01:30:52;;;;;;;;;;;22.00;60.30;;;;;;5102429;28;19914;-9
2022/08/06 01:33:25;;;;;;;;;;;21.90;60.30;;;;;;5119885;28;19915;-8
2022/08/06 01:35:56;;;;;;;;;;;21.90;60.50;;;;;;5119522;28;19990;-8
2022/08/06 01:38:32;;;;;;;;;;;21.80;60.90;;;;;;5120069;28;20064;-9
2022/08/06 01:41:00;;;;;;;;;;;21.70;61.40;;;;;;5119538;28;19904;-8
2022/08/06 01:43:32;;;;;;;;;;;21.70;61.50;;;;;;5120345;28;19907;-9
2022/08/06 01:45:59;;;;;;;;;;;21.60;61.60;;;;;;5119481;28;19904;-9
2022/08/06 01:48:26;;;;;;;;;;;21.60;62.60;;;;;;5119361;28;19904;-9
2022/08/06 01:50:53;;;;;;;;;;;21.60;62.70;;;;;;5119442;28;19904;-8
2022/08/06 01:53:25;;;;;;;;;;;21.60;62.60;;;;;;5119845;28;20329;-9
2022/08/06 01:55:53;;;;;;;;;;;21.70;62.10;;;;;;5119490;28;19907;-9
2022/08/06 01:58:21;;;;;;;;;;;21.70;62.80;;;;;;5120186;28;19907;-8
2022/08/06 02:00:48;;;;;;;;;;;21.70;62.00;;;;;;5119467;28;19968;-9
2022/08/06 02:03:43;;;;;;;;;;;21.70;62.60;;;;;;5119590;28;19969;-9
2022/08/06 02:06:11;;;;;;;;;;;21.80;62.70;;;;;;5098035;28;19935;-9
2022/08/06 02:08:37;;;;;;;;;;;21.90;62.20;;;;;;5119453;28;19943;-9
2022/08/06 02:11:04;;;;;;;;;;;22.00;61.60;;;;;;5119496;28;19914;-9
2022/08/06 02:13:30;;;;;;;;;;;22.20;60.90;;;;;;5119441;28;19914;-8
2022/08/06 02:15:56;;;;;;;;;;;22.20;60.50;;;;;;5119275;28;19950;-9
2022/08/06 02:18:22;;;;;;;;;;;22.30;60.20;;;;;;5120011;28;20281;-9
2022/08/06 02:20:52;;;;;;;;;;;22.30;59.90;;;;;;5118758;28;20196;-9
2022/08/06 02:23:19;;;;;;;;;;;22.30;59.70;;;;;;5101143;28;20196;-9
2022/08/06 02:25:46;;;;;;;;;;;22.30;59.50;;;;;;5119301;28;19994;-9
2022/08/06 02:28:12;;;;;;;;;;;22.30;59.70;;;;;;5101591;28;19914;-9
2022/08/06 02:30:42;;;;;;;;;;;22.30;59.70;;;;;;5118979;28;19904;-9
2022/08/06 02:33:07;;;;;;;;;;;22.20;59.70;;;;;;5118987;28;19946;-9
2022/08/06 02:35:35;;;;;;;;;;;22.20;59.70;;;;;;5100855;28;19953;-9
2022/08/06 02:38:03;;;;;;;;;;;22.10;59.90;;;;;;5118586;28;19919;-8
2022/08/06 02:40:37;;;;;;;;;;;22.20;59.90;;;;;;5100864;28;19908;-8
2022/08/06 02:43:12;;;;;;;;;;;22.20;59.90;;;;;;5118745;28;19908;-8
2022/08/06 02:45:48;;;;;;;;;;;22.10;59.70;;;;;;5100974;28;19915;-9
2022/08/06 02:48:19;;;;;;;;;;;22.10;60.00;;;;;;5096372;28;19956;-9
2022/08/06 02:50:46;;;;;;;;;;;22.10;59.90;;;;;;5118503;28;19903;-8
2022/08/06 02:53:26;;;;;;;;;;;22.20;59.70;;;;;;5118587;28;20041;-9
2022/08/06 02:55:59;;;;;;;;;;;22.10;59.40;;;;;;5101083;28;19935;-9
2022/08/06 02:58:31;;;;;;;;;;;22.00;59.90;;;;;;5118297;28;19907;-8
2022/08/06 03:00:58;;;;;;;;;;;22.00;60.30;;;;;;5101048;28;19962;-8
2022/08/06 03:03:24;;;;;;;;;;;22.10;60.10;;;;;;5118642;28;19904;-9
2022/08/06 03:05:51;;;;;;;;;;;22.10;59.80;;;;;;5118677;28;20253;-9
2022/08/06 03:08:18;;;;;;;;;;;22.10;59.90;;;;;;5100626;28;19908;-9
2022/08/06 03:10:44;;;;;;;;;;;22.00;60.60;;;;;;5118749;28;19903;-8
2022/08/06 03:13:11;;;;;;;;;;;22.00;60.10;;;;;;5118578;28;19914;-9
2022/08/06 03:15:37;;;;;;;;;;;22.10;60.00;;;;;;5099449;28;20243;-9
2022/08/06 03:18:04;;;;;;;;;;;22.10;60.10;;;;;;5100296;28;20178;-9
2022/08/06 03:20:31;;;;;;;;;;;22.00;59.70;;;;;;5101315;28;19904;-9
2022/08/06 03:23:01;;;;;;;;;;;22.10;59.70;;;;;;5117818;28;20284;-9
2022/08/06 03:25:27;;;;;;;;;;;22.00;59.70;;;;;;5118312;28;19977;-9
2022/08/06 03:27:54;;;;;;;;;;;22.00;60.10;;;;;;5118493;28;19904;-9
2022/08/06 03:30:19;;;;;;;;;;;22.00;59.80;;;;;;5118342;28;19904;-9
2022/08/06 03:32:45;;;;;;;;;;;21.90;59.90;;;;;;5100758;28;19904;-9
2022/08/06 03:35:11;;;;;;;;;;;21.70;59.80;;;;;;5118193;28;19916;-9
2022/08/06 03:37:38;;;;;;;;;;;21.60;60.30;;;;;;5118590;28;20188;-9
2022/08/06 03:40:05;;;;;;;;;;;21.60;62.20;;;;;;5100586;28;19904;-8
2022/08/06 03:42:31;;;;;;;;;;;21.60;61.80;;;;;;5117968;28;19904;-9
2022/08/06 03:44:56;;;;;;;;;;;21.70;61.50;;;;;;5100435;28;19915;-8
2022/08/06 03:47:24;;;;;;;;;;;21.80;61.30;;;;;;5117954;28;20007;-9
2022/08/06 03:49:53;;;;;;;;;;;21.80;60.80;;;;;;5100018;28;19904;-9
2022/08/06 03:52:21;;;;;;;;;;;21.80;60.70;;;;;;5121656;28;19904;-9
2022/08/06 03:54:48;;;;;;;;;;;21.90;60.60;;;;;;5121883;28;20275;-8
2022/08/06 03:57:17;;;;;;;;;;;21.90;60.60;;;;;;5104310;28;19914;-9
2022/08/06 03:59:46;;;;;;;;;;;21.90;60.50;;;;;;5121434;28;19994;-9
2022/08/06 04:02:14;;;;;;;;;;;21.90;60.20;;;;;;5122084;28;19904;-10
2022/08/06 04:04:41;;;;;;;;;;;21.90;60.00;;;;;;5121604;28;19911;-9
2022/08/06 04:07:06;;;;;;;;;;;21.90;60.20;;;;;;5121488;28;19907;-9
2022/08/06 04:09:33;;;;;;;;;;;21.80;60.20;;;;;;5122148;28;19904;-8
2022/08/06 04:11:59;;;;;;;;;;;21.80;59.80;;;;;;5121635;28;19925;-9
2022/08/06 04:14:25;;;;;;;;;;;21.80;60.30;;;;;;5121824;28;19903;-8
2022/08/06 04:16:51;;;;;;;;;;;21.80;60.20;;;;;;5120779;28;19926;-8
2022/08/06 04:19:18;;;;;;;;;;;21.80;60.30;;;;;;5103304;28;20196;-8
2022/08/06 04:21:45;;;;;;;;;;;21.80;60.20;;;;;;5121257;28;20019;-9
2022/08/06 04:24:10;;;;;;;;;;;21.80;60.30;;;;;;5121494;28;19994;-9
2022/08/06 04:26:37;;;;;;;;;;;21.80;60.40;;;;;;5121115;28;20007;-9
2022/08/06 04:29:05;;;;;;;;;;;21.80;60.50;;;;;;5121648;28;19946;-9
2022/08/06 04:31:31;;;;;;;;;;;21.80;60.60;;;;;;5121138;28;19903;-9
2022/08/06 04:33:59;;;;;;;;;;;21.90;60.40;;;;;;5103795;28;19914;-9
2022/08/06 04:36:24;;;;;;;;;;;21.90;60.20;;;;;;5121072;28;19910;-9
2022/08/06 04:38:50;;;;;;;;;;;21.90;60.30;;;;;;5103319;28;19904;-9
2022/08/06 04:41:16;;;;;;;;;;;21.90;60.20;;;;;;5102830;28;19907;-9
2022/08/06 04:43:42;;;;;;;;;;;21.90;60.00;;;;;;5120881;28;19951;-8
2022/08/06 04:46:08;;;;;;;;;;;21.90;60.10;;;;;;5120847;28;19904;-9
2022/08/06 04:48:34;;;;;;;;;;;21.90;60.10;;;;;;5103263;28;19915;-9
2022/08/06 04:51:03;;;;;;;;;;;21.90;60.10;;;;;;5120812;28;19968;-9
2022/08/06 04:53:35;;;;;;;;;;;21.90;59.80;;;;;;5120626;28;19923;-9
2022/08/06 04:56:00;;;;;;;;;;;21.80;59.80;;;;;;5103275;28;20234;-9
2022/08/06 04:58:26;;;;;;;;;;;21.70;60.90;;;;;;5120677;28;19916;-9
2022/08/06 05:00:51;;;;;;;;;;;21.70;61.00;;;;;;5103012;28;19904;-8
2022/08/06 05:03:18;;;;;;;;;;;21.80;60.80;;;;;;5101872;28;20049;-9
2022/08/06 05:06:05;;;;;;;;;;;21.90;60.80;;;;;;5120290;28;19908;-9
2022/08/06 05:08:31;;;;;;;;;;;21.90;60.50;;;;;;5102944;28;19994;-8
2022/08/06 05:11:01;;;;;;;;;;;22.00;60.20;;;;;;5120074;28;19907;-8
2022/08/06 05:13:37;;;;;;;;;;;22.00;60.30;;;;;;5115992;28;20222;-8
2022/08/06 05:16:04;;;;;;;;;;;22.10;60.20;;;;;;5120550;28;19918;-9
2022/08/06 05:18:40;;;;;;;;;;;22.10;60.00;;;;;;5102417;28;20261;-9
2022/08/06 05:21:07;;;;;;;;;;;22.20;59.90;;;;;;5102157;28;20342;-9
2022/08/06 05:23:35;;;;;;;;;;;22.20;59.60;;;;;;5102537;28;19904;-9
2022/08/06 05:26:00;;;;;;;;;;;22.30;59.40;;;;;;5101817;28;19926;-8
2022/08/06 05:28:26;;;;;;;;;;;22.40;59.30;;;;;;5102687;28;20019;-8
2022/08/06 05:30:52;;;;;;;;;;;22.40;59.20;;;;;;5119861;28;19903;-9
2022/08/06 05:33:27;;;;;;;;;;;22.50;59.10;;;;;;5120326;28;19968;-8
2022/08/06 05:35:53;;;;;;;;;;;22.60;59.40;;;;;;5102138;28;19903;-8
2022/08/06 05:38:19;;;;;;;;;;;22.70;58.80;;;;;;5102678;28;19908;-8
2022/08/06 05:40:44;;;;;;;;;;;22.70;58.70;;;;;;5119969;28;19915;-8
2022/08/06 05:43:10;;;;;;;;;;;22.80;58.50;;;;;;5120319;28;19903;-8
2022/08/06 05:45:36;;;;;;;;;;;22.90;58.10;;;;;;5119530;28;19908;-9
2022/08/06 05:48:04;;;;;;;;;;;23.00;57.80;;;;;;5119408;28;20051;-9
2022/08/06 05:50:34;;;;;;;;;;;23.10;57.50;;;;;;5118127;28;19980;-8
2022/08/06 05:53:03;;;;;;;;;;;23.30;57.20;;;;;;5101949;28;19922;-9
2022/08/06 05:55:38;;;;;;;;;;;23.40;56.90;;;;;;5119109;28;20288;-9
2022/08/06 05:58:11;;;;;;;;;;;23.60;56.60;;;;;;5101499;28;20336;-9
2022/08/06 06:00:37;;;;;;;;;;;23.70;56.20;;;;;;5101127;28;20284;-9
2022/08/06 06:03:04;;;;;;;;;;;23.90;55.80;;;;;;5118709;28;19904;-9
2022/08/06 06:05:30;;;;;;;;;;;24.00;55.40;;;;;;5118838;28;19964;-8
2022/08/06 06:08:04;;;;;;;;;;;24.10;55.00;;;;;;5119521;28;20123;-8
2022/08/06 06:10:29;;;;;;;;;;;24.30;54.90;;;;;;5119165;28;19957;-8
2022/08/06 06:12:56;;;;;;;;;;;24.40;54.80;;;;;;5101663;28;19904;-9
2022/08/06 06:15:22;;;;;;;;;;;24.50;54.70;;;;;;5118388;28;20002;-9
2022/08/06 06:18:06;;;;;;;;;;;24.60;54.60;;;;;;5119080;28;20006;-8
2022/08/06 06:20:41;;;;;;;;;;;24.80;54.50;;;;;;5118706;28;20002;-8
2022/08/06 06:23:08;;;;;;;;;;;24.90;54.20;;;;;;5118955;28;19990;-9
2022/08/06 06:25:33;;;;;;;;;;;25.00;54.00;;;;;;5119095;28;19908;-9
2022/08/06 06:28:01;;;;;;;;;;;25.10;53.90;;;;;;5118875;28;19914;-9
2022/08/06 06:30:41;;;;;;;;;;;25.20;53.80;;;;;;5118789;28;20438;-8
2022/08/06 06:33:07;;;;;;;;;;;25.40;53.50;;;;;;5117673;28;19969;-8
2022/08/06 06:35:52;;;;;;;;;;;25.60;53.10;;;;;;5118710;28;19916;-9
2022/08/06 06:38:38;;;;;;;;;;;25.80;52.80;;;;;;5118703;28;19907;-8
2022/08/06 06:41:22;;;;;;;;;;;26.00;52.50;;;;;;5118573;28;19965;-9
2022/08/06 06:44:03;;;;;;;;;;;26.20;52.20;;;;;;5118657;28;19969;-8
2022/08/06 06:46:46;;;;;;;;;;;26.40;51.90;;;;;;5118523;28;19957;-9
2022/08/06 06:49:24;;;;;;;;;;;26.60;51.50;;;;;;5118462;28;19915;-8
2022/08/06 06:51:53;;;;;;;;;;;26.90;51.20;;;;;;5118756;28;19903;-8
2022/08/06 06:54:24;;;;;;;;;;;27.50;50.70;;;;;;5118352;28;19990;-8
2022/08/06 06:56:50;;;;;;;;;;;28.20;50.00;;;;;;5118248;28;19956;-8
2022/08/06 06:59:19;;;;;;;;;;;28.70;49.20;;;;;;5118214;28;20259;-8
2022/08/06 07:01:46;;;;;;;;;;;29.20;48.50;;;;;;5100253;28;20410;-9
2022/08/06 07:04:13;;;;;;;;;;;29.70;47.80;;;;;;5118318;28;20338;-8
2022/08/06 07:06:40;;;;;;;;;;;30.20;47.10;;;;;;5118218;28;19961;-8
2022/08/06 07:09:06;;;;;;;;;;;30.60;46.60;;;;;;5117941;28;20335;-8
2022/08/06 07:11:33;;;;;;;;;;;30.80;46.20;;;;;;5118194;28;20273;-8
2022/08/06 07:14:05;;;;;;;;;;;31.00;45.80;;;;;;5117875;28;19961;-8
2022/08/06 07:16:31;;;;;;;;;;;31.20;45.70;;;;;;5117675;28;19923;-8
2022/08/06 07:19:00;;;;;;;;;;;31.40;45.40;;;;;;5117466;28;20428;-9
2022/08/06 07:21:25;;;;;;;;;;;31.60;45.10;;;;;;5118018;28;19904;-9
2022/08/06 07:23:52;;;;;;;;;;;32.00;44.80;;;;;;5099868;28;19904;-8
2022/08/06 07:26:19;;;;;;;;;;;32.20;44.50;;;;;;5102822;28;20213;-9
2022/08/06 07:28:46;;;;;;;;;;;32.50;44.20;;;;;;5122022;28;19947;-9
2022/08/06 07:31:12;;;;;;;;;;;32.70;43.80;;;;;;5104243;28;19904;-8
2022/08/06 07:33:42;;;;;;;;;;;32.30;44.00;;;;;;5122150;28;19910;-8
2022/08/06 07:36:08;;;;;;;;;;;32.50;43.80;;;;;;5121760;28;19904;-8
2022/08/06 07:38:36;;;;;;;;;;;32.80;43.60;;;;;;5103621;28;20270;-9
2022/08/06 07:41:04;;;;;;;;;;;32.20;43.40;;;;;;5121306;28;20430;-9
2022/08/06 07:43:35;;;;;;;;;;;32.30;43.90;;;;;;5121380;28;19990;-8
2022/08/06 07:46:05;;;;;;;;;;;32.60;43.50;;;;;;5120600;28;20192;-9
2022/08/06 07:48:32;;;;;;;;;;;33.00;43.30;;;;;;5120992;28;19915;-10
2022/08/06 07:50:58;;;;;;;;;;;33.30;43.00;;;;;;5103477;28;19911;-9
2022/08/06 07:53:23;;;;;;;;;;;33.50;42.70;;;;;;5103254;28;19904;-8
2022/08/06 07:55:49;;;;;;;;;;;33.60;42.40;;;;;;5121549;28;19923;-9
2022/08/06 07:58:15;;;;;;;;;;;34.00;42.20;;;;;;5120749;28;20281;-8
2022/08/06 08:00:41;;;;;;;;;;;34.00;42.00;;;;;;5120574;28;19984;-9
2022/08/06 08:08:38;;;;;;;;;;;33.60;41.90;;;;;;5120680;28;19973;-9
2022/08/06 08:11:04;;;;;;;;;;;34.20;41.60;;;;;;5119788;28;19914;-8
2022/08/06 08:13:31;;;;;;;;;;;34.50;41.30;;;;;;5120590;28;19986;-8
2022/08/06 08:15:57;;;;;;;;;;;34.60;41.20;;;;;;5120119;28;19916;-8
2022/08/06 08:18:30;;;;;;;;;;;34.80;41.10;;;;;;5120877;28;19907;-8
2022/08/06 08:20:56;;;;;;;;;;;35.10;40.90;;;;;;5102504;28;19998;-9
2022/08/06 08:23:23;;;;;;;;;;;35.00;40.70;;;;;;5121321;28;19914;-8
2022/08/06 08:25:49;;;;;;;;;;;35.00;40.40;;;;;;5120859;28;19904;-9
2022/08/06 08:28:14;;;;;;;;;;;35.30;40.50;;;;;;5120319;28;19911;-9
2022/08/06 08:30:40;;;;;;;;;;;35.40;40.30;;;;;;5120071;28;19904;-8
2022/08/06 08:33:06;;;;;;;;;;;35.30;40.30;;;;;;5102777;28;19960;-9
2022/08/06 08:35:31;;;;;;;;;;;35.40;40.10;;;;;;5119765;28;19899;-8
2022/08/06 08:37:57;;;;;;;;;;;35.40;40.20;;;;;;5118699;28;19911;-8
2022/08/06 08:40:24;;;;;;;;;;;35.50;40.10;;;;;;5102273;28;19922;-8
2022/08/06 08:42:53;;;;;;;;;;;35.50;38.20;;;;;;5118481;28;19943;-9
2022/08/06 08:45:19;;;;;;;;;;;35.40;38.30;;;;;;5119697;28;20392;-9
2022/08/06 08:47:49;;;;;;;;;;;35.30;39.60;;;;;;5120014;28;19965;-8
2022/08/06 08:50:15;;;;;;;;;;;35.10;39.80;;;;;;5101177;28;19915;-9
2022/08/06 08:52:43;;;;;;;;;;;35.10;39.60;;;;;;5119728;28;19911;-8
2022/08/06 08:55:11;;;;;;;;;;;35.10;39.90;;;;;;5099891;28;20025;-8
2022/08/06 08:57:36;;;;;;;;;;;34.70;40.40;;;;;;5098992;28;19973;-8
2022/08/06 09:00:04;;;;;;;;;;;34.80;40.10;;;;;;5081514;28;20285;-8
2022/08/06 09:02:29;;;;;;;;;;;34.80;40.00;;;;;;5098852;28;19990;-8
2022/08/06 09:04:57;;;;;;;;;;;34.20;40.00;;;;;;5098555;28;20049;-8
2022/08/06 09:07:23;;;;;;;;;;;32.80;40.90;;;;;;5081054;28;19927;-8
2022/08/06 09:09:49;;;;;;;;;;;32.40;38.80;;;;;;5098153;28;19904;-8
2022/08/06 09:12:16;;;;;;;;;;;31.80;41.30;;;;;;5080717;28;20328;-9
2022/08/06 09:14:45;;;;;;;;;;;32.70;41.40;;;;;;5080481;28;19904;-9
2022/08/06 09:17:11;;;;;;;;;;;31.80;40.80;;;;;;5098887;28;19922;-8
2022/08/06 09:19:38;;;;;;;;;;;32.00;42.30;;;;;;5098416;28;20511;-8
2022/08/06 09:22:04;;;;;;;;;;;32.90;41.70;;;;;;5098563;28;19904;-8
2022/08/06 09:24:31;;;;;;;;;;;33.50;41.20;;;;;;5098123;28;19904;-8
2022/08/06 09:27:03;;;;;;;;;;;34.00;40.10;;;;;;5080229;28;19907;-8
2022/08/06 09:29:28;;;;;;;;;;;34.30;40.20;;;;;;5098260;28;19995;-8
2022/08/06 09:31:54;;;;;;;;;;;33.90;40.50;;;;;;5098646;28;19998;-9
2022/08/06 09:34:21;;;;;;;;;;;34.00;40.60;;;;;;5080197;28;19908;-8
2022/08/06 09:36:47;;;;;;;;;;;33.80;40.50;;;;;;5097709;28;19903;-8
2022/08/06 09:39:13;;;;;;;;;;;33.60;41.00;;;;;;5098145;28;19912;-9
2022/08/06 09:41:48;;;;;;;;;;;33.90;40.70;;;;;;5097886;28;19994;-9
2022/08/06 09:44:15;;;;;;;;;;;33.90;40.80;;;;;;5097803;28;19912;-8
2022/08/06 09:46:42;;;;;;;;;;;33.80;40.90;;;;;;5097180;28;19973;-8
2022/08/06 09:49:09;;;;;;;;;;;33.80;40.70;;;;;;5096657;28;19985;-8
2022/08/06 09:51:35;;;;;;;;;;;33.70;40.80;;;;;;5096817;28;19915;-8
2022/08/06 09:54:01;;;;;;;;;;;33.40;40.80;;;;;;5078980;28;19904;-8
2022/08/06 09:56:30;;;;;;;;;;;32.90;41.30;;;;;;5078937;28;19904;-8
2022/08/06 09:58:59;;;;;;;;;;;32.40;41.60;;;;;;5097276;28;20331;-9
2022/08/06 10:01:25;;;;;;;;;;;31.60;41.90;;;;;;5097103;28;19915;-8
2022/08/06 10:03:51;;;;;;;;;;;31.20;42.40;;;;;;5097097;28;19907;-9
2022/08/06 10:06:20;;;;;;;;;;;30.90;42.60;;;;;;5097739;28;19912;-8
2022/08/06 10:08:47;;;;;;;;;;;30.60;43.00;;;;;;5097520;28;19953;-9
2022/08/06 10:11:13;;;;;;;;;;;30.00;40.60;;;;;;5096772;28;19915;-9
2022/08/06 10:13:39;;;;;;;;;;;29.70;42.60;;;;;;5097176;28;19911;-9
2022/08/06 10:16:29;;;;;;;;;;;29.60;43.40;;;;;;5096897;28;19919;-8
2022/08/06 10:18:56;;;;;;;;;;;29.60;43.70;;;;;;5097279;28;19911;-9
2022/08/06 10:21:23;;;;;;;;;;;29.60;43.60;;;;;;5097209;28;19939;-8
2022/08/06 10:23:50;;;;;;;;;;;29.50;43.20;;;;;;5097356;28;19904;-8
2022/08/06 10:26:18;;;;;;;;;;;29.40;43.70;;;;;;5097005;28;19904;-8
2022/08/06 10:28:45;;;;;;;;;;;29.30;40.70;;;;;;5097469;28;19904;-8
2022/08/06 10:31:13;;;;;;;;;;;29.20;43.60;;;;;;5097442;28;20412;-8
2022/08/06 10:33:55;;;;;;;;;;;29.10;44.00;;;;;;5097047;28;19904;-9
2022/08/06 10:36:24;;;;;;;;;;;29.10;44.20;;;;;;5079711;28;19904;-8
2022/08/06 10:38:51;;;;;;;;;;;29.10;44.10;;;;;;5096223;28;19915;-9
2022/08/06 10:41:17;;;;;;;;;;;29.10;42.60;;;;;;5097138;28;19945;-8
2022/08/06 10:43:43;;;;;;;;;;;29.10;44.10;;;;;;5096110;28;19950;-9
2022/08/06 10:46:10;;;;;;;;;;;29.00;44.30;;;;;;5096270;28;19929;-9
2022/08/06 10:48:37;;;;;;;;;;;28.90;44.40;;;;;;5096086;28;19904;-9
2022/08/06 10:51:04;;;;;;;;;;;28.90;44.40;;;;;;5096322;28;19939;-8
2022/08/06 10:53:30;;;;;;;;;;;28.80;44.40;;;;;;5096342;28;19998;-9
2022/08/06 10:55:56;;;;;;;;;;;28.80;44.50;;;;;;5095989;28;19904;-8
2022/08/06 10:58:23;;;;;;;;;;;28.70;41.60;;;;;;5095693;28;19957;-9
2022/08/06 11:00:50;;;;;;;;;;;28.70;42.90;;;;;;5094943;28;19904;-9
2022/08/06 11:03:19;;;;;;;;;;;28.70;43.50;;;;;;5078827;28;20181;-8
2022/08/06 11:05:51;;;;;;;;;;;28.70;44.10;;;;;;5078825;28;19930;-9
2022/08/06 11:08:33;;;;;;;;;;;28.60;44.50;;;;;;5096394;28;19904;-9
2022/08/06 11:11:17;;;;;;;;;;;28.40;41.90;;;;;;5096180;28;19904;-9
2022/08/06 11:13:56;;;;;;;;;;;28.30;41.90;;;;;;5095944;28;19911;-8
2022/08/06 11:16:25;;;;;;;;;;;28.10;41.10;;;;;;5096047;28;19967;-8
2022/08/06 11:19:01;;;;;;;;;;;27.80;40.00;;;;;;5095471;28;19908;-9
2022/08/06 11:21:47;;;;;;;;;;;27.90;42.70;;;;;;5096324;28;20316;-9
2022/08/06 11:24:14;;;;;;;;;;;28.00;43.50;;;;;;5094796;28;20235;-9
2022/08/06 11:26:41;;;;;;;;;;;28.00;44.00;;;;;;5095287;28;19990;-8
2022/08/06 11:29:10;;;;;;;;;;;28.00;44.20;;;;;;5095417;28;19904;-9
2022/08/06 11:31:41;;;;;;;;;;;28.00;44.50;;;;;;5095891;28;20261;-9
2022/08/06 11:34:09;;;;;;;;;;;28.00;44.00;;;;;;5075159;28;20426;-9
2022/08/06 11:37:01;;;;;;;;;;;28.00;44.50;;;;;;5095188;28;19995;-8
2022/08/06 11:39:27;;;;;;;;;;;27.90;44.60;;;;;;5090655;28;19907;-8
2022/08/06 11:42:03;;;;;;;;;;;27.80;41.00;;;;;;5078491;28;19908;-8
2022/08/06 11:44:29;;;;;;;;;;;27.80;43.60;;;;;;5095217;28;19908;-9
2022/08/06 11:47:16;;;;;;;;;;;27.90;43.60;;;;;;5095167;28;19914;-9
2022/08/06 11:49:43;;;;;;;;;;;27.90;44.40;;;;;;5095420;28;19912;-9
2022/08/06 11:52:34;;;;;;;;;;;27.90;44.50;;;;;;5095632;28;20319;-8
2022/08/06 11:55:04;;;;;;;;;;;27.80;44.90;;;;;;5094956;28;19912;-8
2022/08/06 11:57:30;;;;;;;;;;;27.80;44.90;;;;;;5078184;28;19972;-8
2022/08/06 11:59:57;;;;;;;;;;;27.60;43.00;;;;;;5094348;28;19916;-9
2022/08/06 12:02:41;;;;;;;;;;;27.50;43.90;;;;;;5078979;28;19951;-9
2022/08/06 12:05:27;;;;;;;;;;;27.40;43.30;;;;;;5076631;28;19905;-8
2022/08/06 12:08:14;;;;;;;;;;;27.30;42.00;;;;;;5058635;28;19912;-8
2022/08/06 12:11:01;;;;;;;;;;;27.10;41.70;;;;;;5094887;28;20444;-9
2022/08/06 12:13:38;;;;;;;;;;;27.00;41.10;;;;;;5093359;28;19994;-9
2022/08/06 12:16:03;;;;;;;;;;;26.90;41.80;;;;;;5098269;28;19904;-8
2022/08/06 12:18:37;;;;;;;;;;;26.50;40.20;;;;;;5098073;28;20024;-9
2022/08/06 12:21:14;;;;;;;;;;;26.60;41.20;;;;;;5099000;28;19977;-9
2022/08/06 12:23:39;;;;;;;;;;;26.60;41.70;;;;;;5098265;28;19912;-9
2022/08/06 12:26:05;;;;;;;;;;;26.70;41.70;;;;;;5098028;28;19904;-9
2022/08/06 12:28:32;;;;;;;;;;;26.70;41.50;;;;;;5098714;28;19910;-9
2022/08/06 12:31:05;;;;;;;;;;;26.70;41.40;;;;;;5098623;28;19908;-9
2022/08/06 12:33:31;;;;;;;;;;;26.70;41.90;;;;;;5097942;28;19994;-9
2022/08/06 12:36:00;;;;;;;;;;;26.70;41.50;;;;;;5097453;28;20022;-9
2022/08/06 12:38:31;;;;;;;;;;;26.60;41.10;;;;;;5075907;28;19911;-9
2022/08/06 12:40:59;;;;;;;;;;;26.60;41.60;;;;;;5080903;28;19996;-9
2022/08/06 12:43:25;;;;;;;;;;;26.60;41.60;;;;;;5098475;28;19911;-9
2022/08/06 12:45:58;;;;;;;;;;;26.80;42.00;;;;;;5098164;28;19999;-9
2022/08/06 12:48:24;;;;;;;;;;;26.90;42.30;;;;;;5098254;28;19903;-8
2022/08/06 12:50:50;;;;;;;;;;;26.90;42.20;;;;;;5097944;28;19904;-9
2022/08/06 12:53:17;;;;;;;;;;;26.90;41.90;;;;;;5098199;28;19904;-8
2022/08/06 12:55:47;;;;;;;;;;;26.80;40.60;;;;;;5097986;28;20406;-8
2022/08/06 12:58:14;;;;;;;;;;;26.80;41.30;;;;;;5098383;28;19918;-8
2022/08/06 13:00:41;;;;;;;;;;;26.70;40.90;;;;;;5097587;28;19904;-9
2022/08/06 13:03:08;;;;;;;;;;;26.80;42.10;;;;;;5098621;28;19915;-9
2022/08/06 13:05:34;;;;;;;;;;;26.90;42.40;;;;;;5098314;28;19904;-8
2022/08/06 13:08:00;;;;;;;;;;;26.90;41.90;;;;;;5079343;28;19950;-9
2022/08/06 13:10:26;;;;;;;;;;;26.70;40.30;;;;;;5097129;28;19947;-9
2022/08/06 13:12:55;;;;;;;;;;;26.70;41.10;;;;;;5097570;28;19969;-9
2022/08/06 13:15:28;;;;;;;;;;;26.60;40.50;;;;;;5098361;28;19900;-8
2022/08/06 13:18:04;;;;;;;;;;;26.50;40.30;;;;;;5079702;28;19989;-11
2022/08/06 13:20:46;;;;;;;;;;;26.60;41.60;;;;;;5097741;28;19957;-9
2022/08/06 13:23:13;;;;;;;;;;;26.60;42.10;;;;;;5079657;28;19918;-8
2022/08/06 13:25:45;;;;;;;;;;;26.70;42.60;;;;;;5097749;28;20015;-9
2022/08/06 13:28:12;;;;;;;;;;;26.70;42.40;;;;;;5079952;28;19969;-9
2022/08/06 13:30:38;;;;;;;;;;;26.80;42.80;;;;;;5097025;28;19908;-8
2022/08/06 13:33:20;;;;;;;;;;;26.90;42.80;;;;;;5097696;28;19923;-8
2022/08/06 13:35:47;;;;;;;;;;;26.90;41.80;;;;;;5096294;28;19904;-8
2022/08/06 13:38:31;;;;;;;;;;;26.90;41.40;;;;;;5096946;28;19935;-9
2022/08/06 13:40:57;;;;;;;;;;;26.90;41.70;;;;;;5078544;28;19908;-8
2022/08/06 13:43:33;;;;;;;;;;;26.90;42.60;;;;;;5096728;28;20210;-9
2022/08/06 13:46:09;;;;;;;;;;;26.90;42.70;;;;;;5097155;28;19908;-8
2022/08/06 13:48:43;;;;;;;;;;;27.00;42.80;;;;;;5097357;28;19904;-8
2022/08/06 13:51:12;;;;;;;;;;;27.00;42.80;;;;;;5097272;28;19930;-9
2022/08/06 13:53:38;;;;;;;;;;;27.00;42.30;;;;;;5095589;28;20045;-8
2022/08/06 13:56:04;;;;;;;;;;;26.90;42.40;;;;;;5096751;28;19991;-9
2022/08/06 13:58:31;;;;;;;;;;;26.90;42.70;;;;;;5079936;28;19969;-8
2022/08/06 14:00:56;;;;;;;;;;;26.90;42.70;;;;;;5078602;28;19926;-10
2022/08/06 14:03:22;;;;;;;;;;;26.90;42.50;;;;;;5078744;28;19915;-8
2022/08/06 14:05:49;;;;;;;;;;;26.90;41.70;;;;;;5078990;28;19916;-8
2022/08/06 14:08:15;;;;;;;;;;;26.80;42.10;;;;;;5078871;28;19904;-9
2022/08/06 14:10:40;;;;;;;;;;;26.80;42.20;;;;;;5096454;28;20245;-8
2022/08/06 14:13:18;;;;;;;;;;;26.80;42.70;;;;;;5079198;28;19904;-8
2022/08/06 14:15:43;;;;;;;;;;;26.80;41.70;;;;;;5096235;28;20301;-8
2022/08/06 14:18:09;;;;;;;;;;;26.80;42.60;;;;;;5078787;28;19912;-8
2022/08/06 14:29:43;;;;;;;;;;;26.70;40.90;;;;;;5096000;28;19911;-8
2022/08/06 14:32:10;;;;;;;;;;;26.70;42.30;;;;;;5079064;28;19903;-8
2022/08/06 14:34:35;;;;;;;;;;;26.80;42.00;;;;;;5095209;28;19904;-9
2022/08/06 14:37:01;;;;;;;;;;;26.80;41.90;;;;;;5095512;28;19904;-8
2022/08/06 14:39:27;;;;;;;;;;;26.90;42.50;;;;;;5096490;28;19975;-8
2022/08/06 14:44:57;;;;;;;;;;;26.90;42.60;;;;;;5095644;28;19915;-9
2022/08/06 14:47:23;;;;;;;;;;;26.90;42.00;;;;;;5078160;28;19930;-9
2022/08/06 14:49:58;;;;;;;;;;;26.90;42.50;;;;;;5077865;28;20182;-8
2022/08/06 14:52:24;;;;;;;;;;;26.90;42.80;;;;;;5096219;28;19930;-9
2022/08/06 14:54:49;;;;;;;;;;;26.90;42.80;;;;;;5078319;28;19904;-9
2022/08/06 14:57:15;;;;;;;;;;;26.90;42.80;;;;;;5095806;28;19908;-8